sensor_id;sensor_type;location;lat;lon;timestamp;P1;durP1;ratioP1;P2;durP2;ratioP2
26050;SDS011;13825;53.496;10.020;2023-03-01T00:02:28;20.83;;;10.67;;
26050;SDS011;13825;53.496;10.020;2023-03-01T00:05:00;24.87;;;12.33;;
26050;SDS011;13825;53.496;10.020;2023-03-01T00:07:28;20.57;;;10.47;;
26050;SDS011;13825;53.496;10.020;2023-03-01T00:09:55;22.73;;;9.60;;
26050;SDS011;13825;53.496;10.020;2023-03-01T00:12:22;27.23;;;11.67;;
26050;SDS011;13825;53.496;10.020;2023-03-01T00:14:50;23.47;;;10.57;;
26050;SDS011;13825;53.496;10.020;2023-03-01T00:17:17;30.73;;;12.83;;
26050;SDS011;13825;53.496;10.020;2023-03-01T00:19:53;27.33;;;11.97;;
26050;SDS011;13825;53.496;10.020;2023-03-01T00:22:20;24.10;;;11.60;;
26050;SDS011;13825;53.496;10.020;2023-03-01T00:24:50;20.73;;;11.33;;
26050;SDS011;13825;53.496;10.020;2023-03-01T00:27:21;22.67;;;10.27;;
26050;SDS011;13825;53.496;10.020;2023-03-01T00:29:48;22.87;;;10.80;;
26050;SDS011;13825;53.496;10.020;2023-03-01T00:32:15;20.17;;;10.77;;
26050;SDS011;13825;53.496;10.020;2023-03-01T00:34:49;23.10;;;10.90;;
26050;SDS011;13825;53.496;10.020;2023-03-01T00:37:20;20.83;;;11.00;;
26050;SDS011;13825;53.496;10.020;2023-03-01T00:39:54;21.17;;;10.27;;
26050;SDS011;13825;53.496;10.020;2023-03-01T00:42:21;18.63;;;10.23;;
26050;SDS011;13825;53.496;10.020;2023-03-01T00:44:48;16.97;;;8.43;;
26050;SDS011;13825;53.496;10.020;2023-03-01T00:47:15;18.17;;;9.50;;
26050;SDS011;13825;53.496;10.020;2023-03-01T00:49:42;20.47;;;9.80;;
26050;SDS011;13825;53.496;10.020;2023-03-01T00:52:09;19.23;;;9.23;;
26050;SDS011;13825;53.496;10.020;2023-03-01T00:54:36;18.83;;;9.73;;
26050;SDS011;13825;53.496;10.020;2023-03-01T00:57:04;17.27;;;9.40;;
26050;SDS011;13825;53.496;10.020;2023-03-01T00:59:31;17.23;;;8.60;;
26050;SDS011;13825;53.496;10.020;2023-03-01T01:01:58;14.63;;;8.57;;
26050;SDS011;13825;53.496;10.020;2023-03-01T01:04:25;18.57;;;9.30;;
26050;SDS011;13825;53.496;10.020;2023-03-01T01:06:52;18.57;;;9.13;;
26050;SDS011;13825;53.496;10.020;2023-03-01T01:09:18;16.20;;;8.40;;
26050;SDS011;13825;53.496;10.020;2023-03-01T01:11:48;18.27;;;7.93;;
26050;SDS011;13825;53.496;10.020;2023-03-01T01:14:18;14.03;;;8.07;;
26050;SDS011;13825;53.496;10.020;2023-03-01T01:16:45;15.83;;;7.53;;
26050;SDS011;13825;53.496;10.020;2023-03-01T01:19:18;13.53;;;8.03;;
26050;SDS011;13825;53.496;10.020;2023-03-01T01:21:51;13.53;;;8.00;;
26050;SDS011;13825;53.496;10.020;2023-03-01T01:24:19;16.80;;;7.37;;
26050;SDS011;13825;53.496;10.020;2023-03-01T01:26:47;11.87;;;6.50;;
26050;SDS011;13825;53.496;10.020;2023-03-01T01:29:15;14.50;;;7.47;;
26050;SDS011;13825;53.496;10.020;2023-03-01T01:31:46;12.30;;;6.63;;
26050;SDS011;13825;53.496;10.020;2023-03-01T01:34:16;13.07;;;7.33;;
26050;SDS011;13825;53.496;10.020;2023-03-01T01:36:49;16.53;;;7.27;;
26050;SDS011;13825;53.496;10.020;2023-03-01T01:39:24;13.73;;;7.63;;
26050;SDS011;13825;53.496;10.020;2023-03-01T01:42:17;12.10;;;6.33;;
26050;SDS011;13825;53.496;10.020;2023-03-01T01:47:56;14.20;;;7.03;;
26050;SDS011;13825;53.496;10.020;2023-03-01T01:50:28;10.93;;;6.93;;
26050;SDS011;13825;53.496;10.020;2023-03-01T01:53:05;11.03;;;5.73;;
26050;SDS011;13825;53.496;10.020;2023-03-01T01:55:38;12.80;;;6.30;;
26050;SDS011;13825;53.496;10.020;2023-03-01T01:58:08;9.77;;;6.07;;
26050;SDS011;13825;53.496;10.020;2023-03-01T02:00:39;10.57;;;5.57;;
26050;SDS011;13825;53.496;10.020;2023-03-01T02:03:08;9.47;;;4.80;;
26050;SDS011;13825;53.496;10.020;2023-03-01T02:05:38;12.57;;;6.00;;
26050;SDS011;13825;53.496;10.020;2023-03-01T02:08:12;8.97;;;5.20;;
26050;SDS011;13825;53.496;10.020;2023-03-01T02:10:47;10.90;;;5.40;;
26050;SDS011;13825;53.496;10.020;2023-03-01T02:13:16;13.10;;;6.10;;
26050;SDS011;13825;53.496;10.020;2023-03-01T02:15:45;9.97;;;4.93;;
26050;SDS011;13825;53.496;10.020;2023-03-01T02:18:18;8.90;;;5.63;;
26050;SDS011;13825;53.496;10.020;2023-03-01T02:20:56;8.70;;;5.80;;
26050;SDS011;13825;53.496;10.020;2023-03-01T02:23:32;7.57;;;5.20;;
26050;SDS011;13825;53.496;10.020;2023-03-01T02:26:02;9.53;;;5.73;;
26050;SDS011;13825;53.496;10.020;2023-03-01T02:28:38;8.93;;;5.33;;
26050;SDS011;13825;53.496;10.020;2023-03-01T02:31:09;8.77;;;5.50;;
26050;SDS011;13825;53.496;10.020;2023-03-01T02:33:57;9.70;;;5.40;;
26050;SDS011;13825;53.496;10.020;2023-03-01T02:36:26;14.67;;;6.27;;
26050;SDS011;13825;53.496;10.020;2023-03-01T02:39:13;10.60;;;5.23;;
26050;SDS011;13825;53.496;10.020;2023-03-01T02:41:51;10.67;;;5.40;;
26050;SDS011;13825;53.496;10.020;2023-03-01T02:44:24;10.33;;;5.93;;
26050;SDS011;13825;53.496;10.020;2023-03-01T02:46:56;8.53;;;4.70;;
26050;SDS011;13825;53.496;10.020;2023-03-01T02:49:32;9.93;;;5.40;;
26050;SDS011;13825;53.496;10.020;2023-03-01T02:52:08;9.57;;;4.83;;
26050;SDS011;13825;53.496;10.020;2023-03-01T02:55:06;9.03;;;5.13;;
26050;SDS011;13825;53.496;10.020;2023-03-01T02:57:39;10.73;;;5.33;;
26050;SDS011;13825;53.496;10.020;2023-03-01T03:00:13;8.50;;;4.80;;
26050;SDS011;13825;53.496;10.020;2023-03-01T03:02:44;8.97;;;4.83;;
26050;SDS011;13825;53.496;10.020;2023-03-01T03:05:14;8.67;;;4.23;;
26050;SDS011;13825;53.496;10.020;2023-03-01T03:07:43;11.50;;;5.37;;
26050;SDS011;13825;53.496;10.020;2023-03-01T03:10:12;8.83;;;5.37;;
26050;SDS011;13825;53.496;10.020;2023-03-01T03:12:40;11.83;;;5.33;;
26050;SDS011;13825;53.496;10.020;2023-03-01T03:15:17;10.43;;;5.13;;
26050;SDS011;13825;53.496;10.020;2023-03-01T03:17:45;12.90;;;5.10;;
26050;SDS011;13825;53.496;10.020;2023-03-01T03:20:13;9.50;;;5.03;;
26050;SDS011;13825;53.496;10.020;2023-03-01T03:22:44;8.77;;;4.90;;
26050;SDS011;13825;53.496;10.020;2023-03-01T03:25:11;9.47;;;4.40;;
26050;SDS011;13825;53.496;10.020;2023-03-01T03:27:39;10.37;;;5.20;;
26050;SDS011;13825;53.496;10.020;2023-03-01T03:30:09;12.83;;;5.53;;
26050;SDS011;13825;53.496;10.020;2023-03-01T03:32:40;9.27;;;4.57;;
26050;SDS011;13825;53.496;10.020;2023-03-01T03:35:18;7.97;;;5.30;;
26050;SDS011;13825;53.496;10.020;2023-03-01T03:37:49;8.60;;;5.03;;
26050;SDS011;13825;53.496;10.020;2023-03-01T03:40:35;9.47;;;4.93;;
26050;SDS011;13825;53.496;10.020;2023-03-01T03:43:03;7.70;;;4.80;;
26050;SDS011;13825;53.496;10.020;2023-03-01T03:45:32;12.37;;;5.07;;
26050;SDS011;13825;53.496;10.020;2023-03-01T03:48:01;9.27;;;5.00;;
26050;SDS011;13825;53.496;10.020;2023-03-01T03:50:36;7.43;;;4.57;;
26050;SDS011;13825;53.496;10.020;2023-03-01T03:53:07;6.20;;;4.97;;
26050;SDS011;13825;53.496;10.020;2023-03-01T03:55:36;10.90;;;4.97;;
26050;SDS011;13825;53.496;10.020;2023-03-01T03:58:07;9.17;;;5.00;;
26050;SDS011;13825;53.496;10.020;2023-03-01T04:00:40;11.50;;;5.30;;
26050;SDS011;13825;53.496;10.020;2023-03-01T04:03:11;10.57;;;4.90;;
26050;SDS011;13825;53.496;10.020;2023-03-01T04:05:41;9.80;;;5.37;;
26050;SDS011;13825;53.496;10.020;2023-03-01T04:08:09;8.07;;;4.70;;
26050;SDS011;13825;53.496;10.020;2023-03-01T04:10:39;9.73;;;5.00;;
26050;SDS011;13825;53.496;10.020;2023-03-01T04:13:09;10.87;;;5.03;;
26050;SDS011;13825;53.496;10.020;2023-03-01T04:15:40;10.23;;;5.40;;
26050;SDS011;13825;53.496;10.020;2023-03-01T04:18:10;8.00;;;5.20;;
26050;SDS011;13825;53.496;10.020;2023-03-01T04:20:39;7.80;;;4.60;;
26050;SDS011;13825;53.496;10.020;2023-03-01T04:23:11;9.23;;;5.03;;
26050;SDS011;13825;53.496;10.020;2023-03-01T04:25:42;10.90;;;5.50;;
26050;SDS011;13825;53.496;10.020;2023-03-01T04:28:37;11.90;;;5.17;;
26050;SDS011;13825;53.496;10.020;2023-03-01T04:31:06;8.50;;;5.00;;
26050;SDS011;13825;53.496;10.020;2023-03-01T04:33:38;8.63;;;4.80;;
26050;SDS011;13825;53.496;10.020;2023-03-01T04:36:07;12.10;;;5.23;;
26050;SDS011;13825;53.496;10.020;2023-03-01T04:38:35;10.13;;;5.50;;
26050;SDS011;13825;53.496;10.020;2023-03-01T04:41:03;9.87;;;5.10;;
26050;SDS011;13825;53.496;10.020;2023-03-01T04:43:31;8.90;;;4.87;;
26050;SDS011;13825;53.496;10.020;2023-03-01T04:46:04;8.33;;;5.17;;
26050;SDS011;13825;53.496;10.020;2023-03-01T04:48:34;10.17;;;4.90;;
26050;SDS011;13825;53.496;10.020;2023-03-01T04:51:01;9.77;;;5.30;;
26050;SDS011;13825;53.496;10.020;2023-03-01T04:53:28;7.53;;;4.90;;
26050;SDS011;13825;53.496;10.020;2023-03-01T04:55:55;10.43;;;4.70;;
26050;SDS011;13825;53.496;10.020;2023-03-01T04:58:26;8.50;;;4.40;;
26050;SDS011;13825;53.496;10.020;2023-03-01T05:00:54;8.30;;;4.67;;
26050;SDS011;13825;53.496;10.020;2023-03-01T05:03:22;9.63;;;4.93;;
26050;SDS011;13825;53.496;10.020;2023-03-01T05:05:50;7.20;;;4.60;;
26050;SDS011;13825;53.496;10.020;2023-03-01T05:08:18;8.13;;;5.10;;
26050;SDS011;13825;53.496;10.020;2023-03-01T05:10:48;9.03;;;5.13;;
26050;SDS011;13825;53.496;10.020;2023-03-01T05:13:15;6.87;;;4.70;;
26050;SDS011;13825;53.496;10.020;2023-03-01T05:15:46;8.00;;;4.80;;
26050;SDS011;13825;53.496;10.020;2023-03-01T05:18:14;8.10;;;4.50;;
26050;SDS011;13825;53.496;10.020;2023-03-01T05:20:42;11.40;;;5.13;;
26050;SDS011;13825;53.496;10.020;2023-03-01T05:23:11;9.53;;;5.10;;
26050;SDS011;13825;53.496;10.020;2023-03-01T05:25:38;8.20;;;4.57;;
26050;SDS011;13825;53.496;10.020;2023-03-01T05:28:06;7.47;;;4.40;;
26050;SDS011;13825;53.496;10.020;2023-03-01T05:30:37;7.83;;;4.33;;
26050;SDS011;13825;53.496;10.020;2023-03-01T05:33:05;7.30;;;4.60;;
26050;SDS011;13825;53.496;10.020;2023-03-01T05:35:38;13.67;;;5.30;;
26050;SDS011;13825;53.496;10.020;2023-03-01T05:38:08;9.97;;;4.80;;
26050;SDS011;13825;53.496;10.020;2023-03-01T05:40:38;6.63;;;4.50;;
26050;SDS011;13825;53.496;10.020;2023-03-01T05:43:05;9.17;;;5.10;;
26050;SDS011;13825;53.496;10.020;2023-03-01T05:45:33;13.20;;;5.30;;
26050;SDS011;13825;53.496;10.020;2023-03-01T05:48:03;9.37;;;5.13;;
26050;SDS011;13825;53.496;10.020;2023-03-01T05:50:32;9.37;;;5.23;;
26050;SDS011;13825;53.496;10.020;2023-03-01T05:53:01;11.50;;;6.03;;
26050;SDS011;13825;53.496;10.020;2023-03-01T05:55:32;8.63;;;5.30;;
26050;SDS011;13825;53.496;10.020;2023-03-01T05:57:59;12.93;;;6.50;;
26050;SDS011;13825;53.496;10.020;2023-03-01T06:00:27;11.03;;;6.20;;
26050;SDS011;13825;53.496;10.020;2023-03-01T06:02:56;8.70;;;5.43;;
26050;SDS011;13825;53.496;10.020;2023-03-01T06:05:24;10.83;;;5.50;;
26050;SDS011;13825;53.496;10.020;2023-03-01T06:07:52;9.60;;;5.40;;
26050;SDS011;13825;53.496;10.020;2023-03-01T06:10:19;10.07;;;5.37;;
26050;SDS011;13825;53.496;10.020;2023-03-01T06:12:49;8.73;;;5.80;;
26050;SDS011;13825;53.496;10.020;2023-03-01T06:15:16;8.07;;;4.60;;
26050;SDS011;13825;53.496;10.020;2023-03-01T06:17:44;10.40;;;5.23;;
26050;SDS011;13825;53.496;10.020;2023-03-01T06:20:12;12.97;;;5.17;;
26050;SDS011;13825;53.496;10.020;2023-03-01T06:22:41;8.27;;;5.23;;
26050;SDS011;13825;53.496;10.020;2023-03-01T06:25:08;7.00;;;5.30;;
26050;SDS011;13825;53.496;10.020;2023-03-01T06:27:37;9.33;;;4.93;;
26050;SDS011;13825;53.496;10.020;2023-03-01T06:30:07;6.50;;;4.10;;
26050;SDS011;13825;53.496;10.020;2023-03-01T06:32:34;8.37;;;5.10;;
26050;SDS011;13825;53.496;10.020;2023-03-01T06:35:02;11.23;;;5.17;;
26050;SDS011;13825;53.496;10.020;2023-03-01T06:37:31;6.80;;;4.70;;
26050;SDS011;13825;53.496;10.020;2023-03-01T06:40:00;10.20;;;4.50;;
26050;SDS011;13825;53.496;10.020;2023-03-01T06:42:32;6.50;;;4.67;;
26050;SDS011;13825;53.496;10.020;2023-03-01T06:44:59;9.87;;;5.57;;
26050;SDS011;13825;53.496;10.020;2023-03-01T06:47:27;11.07;;;5.70;;
26050;SDS011;13825;53.496;10.020;2023-03-01T06:49:54;12.30;;;6.23;;
26050;SDS011;13825;53.496;10.020;2023-03-01T06:52:21;11.33;;;5.23;;
26050;SDS011;13825;53.496;10.020;2023-03-01T06:54:48;10.50;;;4.63;;
26050;SDS011;13825;53.496;10.020;2023-03-01T06:57:15;9.23;;;4.70;;
26050;SDS011;13825;53.496;10.020;2023-03-01T06:59:51;9.00;;;5.30;;
26050;SDS011;13825;53.496;10.020;2023-03-01T07:02:18;9.93;;;5.50;;
26050;SDS011;13825;53.496;10.020;2023-03-01T07:04:47;9.07;;;5.10;;
26050;SDS011;13825;53.496;10.020;2023-03-01T07:07:15;9.33;;;5.50;;
26050;SDS011;13825;53.496;10.020;2023-03-01T07:09:43;9.93;;;5.87;;
26050;SDS011;13825;53.496;10.020;2023-03-01T07:12:10;9.67;;;5.17;;
26050;SDS011;13825;53.496;10.020;2023-03-01T07:14:37;11.53;;;5.73;;
26050;SDS011;13825;53.496;10.020;2023-03-01T07:17:05;9.57;;;5.83;;
26050;SDS011;13825;53.496;10.020;2023-03-01T07:19:33;9.17;;;4.90;;
26050;SDS011;13825;53.496;10.020;2023-03-01T07:22:02;9.00;;;5.13;;
26050;SDS011;13825;53.496;10.020;2023-03-01T07:24:38;11.00;;;5.20;;
26050;SDS011;13825;53.496;10.020;2023-03-01T07:27:05;16.73;;;7.27;;
26050;SDS011;13825;53.496;10.020;2023-03-01T07:29:32;20.93;;;8.73;;
26050;SDS011;13825;53.496;10.020;2023-03-01T07:32:01;12.10;;;6.90;;
26050;SDS011;13825;53.496;10.020;2023-03-01T07:34:28;10.70;;;5.77;;
26050;SDS011;13825;53.496;10.020;2023-03-01T07:36:56;8.73;;;5.80;;
26050;SDS011;13825;53.496;10.020;2023-03-01T07:39:24;14.03;;;5.17;;
26050;SDS011;13825;53.496;10.020;2023-03-01T07:41:51;12.73;;;5.47;;
26050;SDS011;13825;53.496;10.020;2023-03-01T07:44:18;12.63;;;5.60;;
26050;SDS011;13825;53.496;10.020;2023-03-01T07:46:45;9.23;;;5.50;;
26050;SDS011;13825;53.496;10.020;2023-03-01T07:49:12;11.27;;;5.13;;
26050;SDS011;13825;53.496;10.020;2023-03-01T07:51:39;11.67;;;6.70;;
26050;SDS011;13825;53.496;10.020;2023-03-01T07:54:07;6.80;;;5.43;;
26050;SDS011;13825;53.496;10.020;2023-03-01T07:56:35;11.67;;;6.30;;
26050;SDS011;13825;53.496;10.020;2023-03-01T07:59:02;12.13;;;5.73;;
26050;SDS011;13825;53.496;10.020;2023-03-01T08:01:29;9.97;;;5.03;;
26050;SDS011;13825;53.496;10.020;2023-03-01T08:03:56;10.30;;;4.87;;
26050;SDS011;13825;53.496;10.020;2023-03-01T08:06:23;8.00;;;4.60;;
26050;SDS011;13825;53.496;10.020;2023-03-01T08:08:50;8.07;;;4.77;;
26050;SDS011;13825;53.496;10.020;2023-03-01T08:11:17;7.63;;;4.10;;
26050;SDS011;13825;53.496;10.020;2023-03-01T08:13:46;9.90;;;4.70;;
26050;SDS011;13825;53.496;10.020;2023-03-01T08:16:14;10.33;;;4.43;;
26050;SDS011;13825;53.496;10.020;2023-03-01T08:18:42;11.07;;;4.50;;
26050;SDS011;13825;53.496;10.020;2023-03-01T08:21:13;7.23;;;4.90;;
26050;SDS011;13825;53.496;10.020;2023-03-01T08:23:41;6.23;;;4.80;;
26050;SDS011;13825;53.496;10.020;2023-03-01T08:26:09;12.17;;;5.33;;
26050;SDS011;13825;53.496;10.020;2023-03-01T08:28:37;7.27;;;4.67;;
26050;SDS011;13825;53.496;10.020;2023-03-01T08:31:14;8.67;;;5.50;;
26050;SDS011;13825;53.496;10.020;2023-03-01T08:33:43;14.17;;;6.47;;
26050;SDS011;13825;53.496;10.020;2023-03-01T08:36:15;6.87;;;4.17;;
26050;SDS011;13825;53.496;10.020;2023-03-01T08:38:43;7.37;;;5.00;;
26050;SDS011;13825;53.496;10.020;2023-03-01T08:41:10;9.93;;;4.80;;
26050;SDS011;13825;53.496;10.020;2023-03-01T08:43:38;9.87;;;4.60;;
26050;SDS011;13825;53.496;10.020;2023-03-01T08:46:05;9.03;;;4.90;;
26050;SDS011;13825;53.496;10.020;2023-03-01T08:48:34;7.13;;;4.20;;
26050;SDS011;13825;53.496;10.020;2023-03-01T08:51:06;9.40;;;4.93;;
26050;SDS011;13825;53.496;10.020;2023-03-01T08:53:34;7.17;;;4.50;;
26050;SDS011;13825;53.496;10.020;2023-03-01T08:56:02;8.53;;;5.00;;
26050;SDS011;13825;53.496;10.020;2023-03-01T08:58:30;13.27;;;8.17;;
26050;SDS011;13825;53.496;10.020;2023-03-01T09:00:57;21.03;;;10.97;;
26050;SDS011;13825;53.496;10.020;2023-03-01T09:03:24;13.43;;;7.20;;
26050;SDS011;13825;53.496;10.020;2023-03-01T09:05:53;11.37;;;7.07;;
26050;SDS011;13825;53.496;10.020;2023-03-01T09:08:26;10.73;;;5.23;;
26050;SDS011;13825;53.496;10.020;2023-03-01T09:10:54;8.60;;;5.73;;
26050;SDS011;13825;53.496;10.020;2023-03-01T09:13:21;9.30;;;5.80;;
26050;SDS011;13825;53.496;10.020;2023-03-01T09:15:49;10.50;;;5.70;;
26050;SDS011;13825;53.496;10.020;2023-03-01T09:18:17;8.07;;;5.53;;
26050;SDS011;13825;53.496;10.020;2023-03-01T09:20:44;11.90;;;5.63;;
26050;SDS011;13825;53.496;10.020;2023-03-01T09:23:13;13.77;;;5.77;;
26050;SDS011;13825;53.496;10.020;2023-03-01T09:25:40;9.20;;;5.67;;
26050;SDS011;13825;53.496;10.020;2023-03-01T09:28:07;8.57;;;5.27;;
26050;SDS011;13825;53.496;10.020;2023-03-01T09:30:36;13.57;;;5.47;;
26050;SDS011;13825;53.496;10.020;2023-03-01T09:33:03;12.10;;;5.73;;
26050;SDS011;13825;53.496;10.020;2023-03-01T09:35:30;12.33;;;5.57;;
26050;SDS011;13825;53.496;10.020;2023-03-01T09:37:57;11.53;;;6.53;;
26050;SDS011;13825;53.496;10.020;2023-03-01T09:40:25;10.73;;;6.40;;
26050;SDS011;13825;53.496;10.020;2023-03-01T09:42:54;12.83;;;6.40;;
26050;SDS011;13825;53.496;10.020;2023-03-01T09:45:29;10.60;;;6.03;;
26050;SDS011;13825;53.496;10.020;2023-03-01T09:48:01;11.10;;;6.53;;
26050;SDS011;13825;53.496;10.020;2023-03-01T09:50:32;14.40;;;7.47;;
26050;SDS011;13825;53.496;10.020;2023-03-01T09:53:02;11.33;;;6.77;;
26050;SDS011;13825;53.496;10.020;2023-03-01T09:55:36;11.03;;;6.20;;
26050;SDS011;13825;53.496;10.020;2023-03-01T09:58:14;14.27;;;7.03;;
26050;SDS011;13825;53.496;10.020;2023-03-01T10:00:54;10.80;;;6.63;;
26050;SDS011;13825;53.496;10.020;2023-03-01T10:03:26;10.83;;;6.90;;
26050;SDS011;13825;53.496;10.020;2023-03-01T10:06:02;14.90;;;7.97;;
26050;SDS011;13825;53.496;10.020;2023-03-01T10:08:36;17.13;;;7.83;;
26050;SDS011;13825;53.496;10.020;2023-03-01T10:11:16;12.67;;;7.13;;
26050;SDS011;13825;53.496;10.020;2023-03-01T10:13:47;11.53;;;7.80;;
26050;SDS011;13825;53.496;10.020;2023-03-01T10:16:21;13.67;;;8.03;;
26050;SDS011;13825;53.496;10.020;2023-03-01T10:18:52;11.10;;;7.50;;
26050;SDS011;13825;53.496;10.020;2023-03-01T10:21:22;10.80;;;7.63;;
26050;SDS011;13825;53.496;10.020;2023-03-01T10:23:49;12.63;;;7.50;;
26050;SDS011;13825;53.496;10.020;2023-03-01T10:26:29;13.17;;;8.37;;
26050;SDS011;13825;53.496;10.020;2023-03-01T10:29:05;14.00;;;8.00;;
26050;SDS011;13825;53.496;10.020;2023-03-01T10:31:37;11.83;;;7.03;;
26050;SDS011;13825;53.496;10.020;2023-03-01T10:34:08;12.30;;;7.67;;
26050;SDS011;13825;53.496;10.020;2023-03-01T10:36:38;16.47;;;8.13;;
26050;SDS011;13825;53.496;10.020;2023-03-01T10:39:11;12.57;;;7.87;;
26050;SDS011;13825;53.496;10.020;2023-03-01T10:41:58;13.13;;;8.10;;
26050;SDS011;13825;53.496;10.020;2023-03-01T10:44:38;13.67;;;7.47;;
26050;SDS011;13825;53.496;10.020;2023-03-01T10:47:12;11.50;;;7.53;;
26050;SDS011;13825;53.496;10.020;2023-03-01T10:52:26;11.77;;;7.27;;
26050;SDS011;13825;53.496;10.020;2023-03-01T10:54:56;12.43;;;7.57;;
26050;SDS011;13825;53.496;10.020;2023-03-01T10:57:30;12.50;;;8.03;;
26050;SDS011;13825;53.496;10.020;2023-03-01T11:00:09;9.93;;;7.00;;
26050;SDS011;13825;53.496;10.020;2023-03-01T11:02:47;10.63;;;6.23;;
26050;SDS011;13825;53.496;10.020;2023-03-01T11:05:20;11.50;;;6.77;;
26050;SDS011;13825;53.496;10.020;2023-03-01T11:07:55;13.03;;;6.67;;
26050;SDS011;13825;53.496;10.020;2023-03-01T11:10:23;12.17;;;6.93;;
26050;SDS011;13825;53.496;10.020;2023-03-01T11:12:53;12.13;;;7.20;;
26050;SDS011;13825;53.496;10.020;2023-03-01T11:15:33;11.57;;;7.03;;
26050;SDS011;13825;53.496;10.020;2023-03-01T11:18:00;13.70;;;7.83;;
26050;SDS011;13825;53.496;10.020;2023-03-01T11:20:29;13.07;;;7.80;;
26050;SDS011;13825;53.496;10.020;2023-03-01T11:22:59;10.67;;;6.40;;
26050;SDS011;13825;53.496;10.020;2023-03-01T11:25:30;11.23;;;7.20;;
26050;SDS011;13825;53.496;10.020;2023-03-01T11:28:03;8.87;;;6.70;;
26050;SDS011;13825;53.496;10.020;2023-03-01T11:30:32;12.03;;;6.47;;
26050;SDS011;13825;53.496;10.020;2023-03-01T11:33:05;12.60;;;6.27;;
26050;SDS011;13825;53.496;10.020;2023-03-01T11:35:42;12.80;;;6.70;;
26050;SDS011;13825;53.496;10.020;2023-03-01T11:38:16;9.30;;;5.70;;
26050;SDS011;13825;53.496;10.020;2023-03-01T11:40:48;11.20;;;6.43;;
26050;SDS011;13825;53.496;10.020;2023-03-01T11:43:22;11.87;;;6.47;;
26050;SDS011;13825;53.496;10.020;2023-03-01T11:49:10;9.13;;;4.90;;
26050;SDS011;13825;53.496;10.020;2023-03-01T11:51:51;9.00;;;5.47;;
26050;SDS011;13825;53.496;10.020;2023-03-01T11:54:30;11.20;;;6.03;;
26050;SDS011;13825;53.496;10.020;2023-03-01T11:57:08;9.20;;;5.07;;
26050;SDS011;13825;53.496;10.020;2023-03-01T12:02:59;11.53;;;5.80;;
26050;SDS011;13825;53.496;10.020;2023-03-01T12:05:56;10.20;;;5.30;;
26050;SDS011;13825;53.496;10.020;2023-03-01T12:09:00;9.20;;;5.33;;
26050;SDS011;13825;53.496;10.020;2023-03-01T12:11:37;8.10;;;5.10;;
26050;SDS011;13825;53.496;10.020;2023-03-01T12:14:23;8.20;;;5.10;;
26050;SDS011;13825;53.496;10.020;2023-03-01T12:17:19;7.70;;;5.00;;
26050;SDS011;13825;53.496;10.020;2023-03-01T12:25:31;10.47;;;6.00;;
26050;SDS011;13825;53.496;10.020;2023-03-01T12:28:22;9.67;;;5.30;;
26050;SDS011;13825;53.496;10.020;2023-03-01T12:31:23;8.77;;;4.93;;
26050;SDS011;13825;53.496;10.020;2023-03-01T12:37:32;10.80;;;6.07;;
26050;SDS011;13825;53.496;10.020;2023-03-01T12:40:22;7.40;;;4.93;;
26050;SDS011;13825;53.496;10.020;2023-03-01T12:43:24;7.20;;;4.80;;
26050;SDS011;13825;53.496;10.020;2023-03-01T12:46:21;11.27;;;5.87;;
26050;SDS011;13825;53.496;10.020;2023-03-01T12:48:56;11.47;;;6.33;;
26050;SDS011;13825;53.496;10.020;2023-03-01T12:51:37;10.23;;;6.13;;
26050;SDS011;13825;53.496;10.020;2023-03-01T12:54:11;10.17;;;6.00;;
26050;SDS011;13825;53.496;10.020;2023-03-01T12:56:52;7.77;;;4.90;;
26050;SDS011;13825;53.496;10.020;2023-03-01T12:59:21;9.57;;;5.70;;
26050;SDS011;13825;53.496;10.020;2023-03-01T13:01:55;9.67;;;5.40;;
26050;SDS011;13825;53.496;10.020;2023-03-01T13:04:34;9.53;;;5.67;;
26050;SDS011;13825;53.496;10.020;2023-03-01T13:07:23;9.63;;;5.37;;
26050;SDS011;13825;53.496;10.020;2023-03-01T13:09:58;9.40;;;5.70;;
26050;SDS011;13825;53.496;10.020;2023-03-01T13:12:42;8.97;;;5.47;;
26050;SDS011;13825;53.496;10.020;2023-03-01T13:15:27;9.57;;;5.37;;
26050;SDS011;13825;53.496;10.020;2023-03-01T13:17:56;8.53;;;5.27;;
26050;SDS011;13825;53.496;10.020;2023-03-01T13:20:26;9.00;;;4.67;;
26050;SDS011;13825;53.496;10.020;2023-03-01T13:23:11;7.90;;;4.93;;
26050;SDS011;13825;53.496;10.020;2023-03-01T13:26:00;7.83;;;4.43;;
26050;SDS011;13825;53.496;10.020;2023-03-01T13:28:46;7.77;;;4.37;;
26050;SDS011;13825;53.496;10.020;2023-03-01T13:34:40;6.67;;;4.20;;
26050;SDS011;13825;53.496;10.020;2023-03-01T13:37:19;6.87;;;4.10;;
26050;SDS011;13825;53.496;10.020;2023-03-01T13:39:55;6.07;;;4.20;;
26050;SDS011;13825;53.496;10.020;2023-03-01T13:42:36;7.00;;;4.03;;
26050;SDS011;13825;53.496;10.020;2023-03-01T13:45:14;9.27;;;4.07;;
26050;SDS011;13825;53.496;10.020;2023-03-01T13:47:45;12.13;;;4.67;;
26050;SDS011;13825;53.496;10.020;2023-03-01T13:50:16;8.50;;;3.90;;
26050;SDS011;13825;53.496;10.020;2023-03-01T13:52:48;4.10;;;3.30;;
26050;SDS011;13825;53.496;10.020;2023-03-01T13:55:20;6.30;;;4.27;;
26050;SDS011;13825;53.496;10.020;2023-03-01T13:57:50;6.57;;;4.50;;
26050;SDS011;13825;53.496;10.020;2023-03-01T14:00:25;6.97;;;4.03;;
26050;SDS011;13825;53.496;10.020;2023-03-01T14:03:01;6.73;;;4.30;;
26050;SDS011;13825;53.496;10.020;2023-03-01T14:05:57;5.83;;;3.97;;
26050;SDS011;13825;53.496;10.020;2023-03-01T14:08:27;8.00;;;4.67;;
26050;SDS011;13825;53.496;10.020;2023-03-01T14:11:13;6.43;;;4.27;;
26050;SDS011;13825;53.496;10.020;2023-03-01T14:14:18;9.40;;;4.30;;
26050;SDS011;13825;53.496;10.020;2023-03-01T14:17:08;7.17;;;4.43;;
26050;SDS011;13825;53.496;10.020;2023-03-01T14:19:59;8.97;;;4.47;;
26050;SDS011;13825;53.496;10.020;2023-03-01T14:22:44;8.27;;;4.50;;
26050;SDS011;13825;53.496;10.020;2023-03-01T14:25:22;6.30;;;3.90;;
26050;SDS011;13825;53.496;10.020;2023-03-01T14:27:54;7.67;;;4.17;;
26050;SDS011;13825;53.496;10.020;2023-03-01T14:30:27;6.07;;;3.90;;
26050;SDS011;13825;53.496;10.020;2023-03-01T14:32:59;6.03;;;4.07;;
26050;SDS011;13825;53.496;10.020;2023-03-01T14:35:30;8.47;;;4.30;;
26050;SDS011;13825;53.496;10.020;2023-03-01T14:37:59;7.47;;;4.30;;
26050;SDS011;13825;53.496;10.020;2023-03-01T14:40:27;6.50;;;4.10;;
26050;SDS011;13825;53.496;10.020;2023-03-01T14:42:58;8.60;;;4.10;;
26050;SDS011;13825;53.496;10.020;2023-03-01T14:45:27;8.53;;;4.60;;
26050;SDS011;13825;53.496;10.020;2023-03-01T14:47:58;5.93;;;3.77;;
26050;SDS011;13825;53.496;10.020;2023-03-01T14:50:27;5.77;;;3.67;;
26050;SDS011;13825;53.496;10.020;2023-03-01T14:52:57;8.27;;;4.13;;
26050;SDS011;13825;53.496;10.020;2023-03-01T14:55:28;7.03;;;3.73;;
26050;SDS011;13825;53.496;10.020;2023-03-01T14:57:58;7.57;;;3.60;;
26050;SDS011;13825;53.496;10.020;2023-03-01T15:00:28;6.30;;;3.93;;
26050;SDS011;13825;53.496;10.020;2023-03-01T15:03:04;5.93;;;3.53;;
26050;SDS011;13825;53.496;10.020;2023-03-01T15:05:39;7.07;;;4.30;;
26050;SDS011;13825;53.496;10.020;2023-03-01T15:08:16;4.80;;;3.30;;
26050;SDS011;13825;53.496;10.020;2023-03-01T15:10:58;5.87;;;3.50;;
26050;SDS011;13825;53.496;10.020;2023-03-01T15:13:34;5.43;;;3.47;;
26050;SDS011;13825;53.496;10.020;2023-03-01T15:16:08;4.77;;;3.27;;
26050;SDS011;13825;53.496;10.020;2023-03-01T15:55:05;8.40;;;4.47;;
26050;SDS011;13825;53.496;10.020;2023-03-01T15:57:48;8.67;;;4.73;;
26050;SDS011;13825;53.496;10.020;2023-03-01T16:00:16;7.43;;;4.37;;